Time;durP1;ratioP1;P1;durP2;ratioP2;P2;SDS_P1;SDS_P2;PMS_P1;PMS_P2;Temp;Humidity;BMP_temperature;BMP_pressure;BME280_temperature;BME280_humidity;BME280_pressure;Samples;Min_cycle;Max_cycle;Signal;HPM_P1;HPM_P2
2021/12/02 00:02:07;;;;;;;8.77;1.55;;;3.80;99.90;;;;;;5050167;28;20162;-60
2021/12/02 00:04:34;;;;;;;6.22;1.35;;;3.80;99.90;;;;;;5049614;28;20562;-60
2021/12/02 00:07:00;;;;;;;10.90;1.70;;;3.90;99.90;;;;;;5049799;28;20041;-60
2021/12/02 00:09:25;;;;;;;7.32;1.70;;;4.00;99.90;;;;;;5049469;28;20083;-60
2021/12/02 00:11:51;;;;;;;7.05;1.55;;;4.00;99.90;;;;;;5050065;28;20072;-60
2021/12/02 00:14:23;;;;;;;10.63;1.70;;;4.00;99.90;;;;;;5050110;28;20041;-60
2021/12/02 00:22:10;;;;;;;4.65;1.42;;;3.90;99.90;;;;;;5049504;28;20512;-61
2021/12/02 00:24:38;;;;;;;11.35;1.83;;;3.90;99.90;;;;;;5049741;28;20033;-60
2021/12/02 00:27:07;;;;;;;7.43;1.58;;;3.80;99.90;;;;;;5049534;28;20499;-61
2021/12/02 00:29:34;;;;;;;7.00;1.83;;;3.80;99.90;;;;;;5049241;28;20044;-61
2021/12/02 00:32:04;;;;;;;8.18;2.67;;;3.80;99.90;;;;;;5058746;28;20071;-60
2021/12/02 00:34:30;;;;;;;7.13;1.75;;;3.90;99.90;;;;;;5069589;28;20033;-61
2021/12/02 00:36:57;;;;;;;8.35;1.70;;;3.80;99.90;;;;;;5069792;28;20037;-61
2021/12/02 00:39:23;;;;;;;5.20;1.65;;;3.90;99.90;;;;;;5069534;28;20098;-60
2021/12/02 00:41:50;;;;;;;7.13;1.83;;;3.90;99.90;;;;;;5069691;28;20044;-60
2021/12/02 00:44:18;;;;;;;7.13;2.00;;;3.80;99.90;;;;;;5069566;28;20037;-61
2021/12/02 00:46:45;;;;;;;6.80;1.75;;;3.90;99.90;;;;;;5049975;28;20045;-61
2021/12/02 00:49:14;;;;;;;10.43;1.98;;;3.90;99.90;;;;;;5049057;28;20045;-61
2021/12/02 00:51:43;;;;;;;11.27;2.10;;;3.90;99.90;;;;;;5031506;28;20484;-61
2021/12/02 00:54:11;;;;;;;6.18;1.50;;;3.90;99.90;;;;;;5048367;28;20045;-61
2021/12/02 00:56:38;;;;;;;10.40;1.80;;;3.80;99.90;;;;;;5049304;28;20087;-61
2021/12/02 00:59:05;;;;;;;7.03;1.63;;;3.70;99.90;;;;;;5049502;28;20049;-60
2021/12/02 01:01:34;;;;;;;8.18;1.38;;;3.70;99.90;;;;;;5031376;28;20052;-61
2021/12/02 01:04:12;;;;;;;8.48;1.45;;;3.80;99.90;;;;;;5049382;28;20044;-60
2021/12/02 01:06:38;;;;;;;5.85;1.70;;;3.80;99.90;;;;;;5049369;28;20033;-60
2021/12/02 01:09:06;;;;;;;4.85;1.30;;;3.80;99.90;;;;;;5049481;28;20039;-60
2021/12/02 01:11:32;;;;;;;6.68;1.50;;;3.80;99.90;;;;;;5049325;28;20090;-60
2021/12/02 01:13:58;;;;;;;7.32;1.40;;;3.80;99.90;;;;;;5048971;28;20037;-60
2021/12/02 01:16:24;;;;;;;3.17;1.40;;;3.80;99.90;;;;;;5049300;28;20068;-61
2021/12/02 01:18:50;;;;;;;4.72;1.20;;;3.70;99.90;;;;;;5049549;28;20548;-60
2021/12/02 01:21:19;;;;;;;3.40;1.20;;;3.60;99.90;;;;;;5049049;28;20038;-60
2021/12/02 01:23:48;;;;;;;6.43;1.48;;;3.60;99.90;;;;;;5049130;28;20088;-61
2021/12/02 01:26:16;;;;;;;7.30;1.50;;;3.50;99.90;;;;;;5049039;28;20103;-61
2021/12/02 01:28:43;;;;;;;6.72;1.20;;;3.50;99.90;;;;;;5051303;28;20045;-60
2021/12/02 01:33:46;;;;;;;6.55;1.33;;;3.40;99.90;;;;;;5497718;22;20278;-61
2021/12/02 01:36:12;;;;;;;8.68;1.50;;;3.30;99.90;;;;;;5052682;28;20077;-61
2021/12/02 01:38:37;;;;;;;4.97;1.30;;;3.20;99.90;;;;;;5052895;28;20638;-60
2021/12/02 01:41:04;;;;;;;4.32;1.45;;;3.20;99.90;;;;;;5052782;28;20163;-61
2021/12/02 01:43:43;;;;;;;7.25;2.53;;;3.10;99.90;;;;;;5052251;28;20032;-59
2021/12/02 01:46:09;;;;;;;5.25;1.40;;;3.00;99.90;;;;;;5051403;28;20090;-61
2021/12/02 01:48:38;;;;;;;6.22;2.08;;;3.00;99.90;;;;;;5052058;28;20487;-60
2021/12/02 01:51:06;;;;;;;4.25;1.40;;;3.00;99.90;;;;;;5052362;28;20167;-61
2021/12/02 01:53:34;;;;;;;7.35;1.40;;;3.00;99.90;;;;;;5052234;28;20044;-61
2021/12/02 01:56:15;;;;;;;3.95;1.17;;;3.10;99.90;;;;;;5052360;28;20056;-61
2021/12/02 01:58:46;;;;;;;5.33;1.33;;;3.20;99.90;;;;;;5052369;28;20491;-59
2021/12/02 02:01:16;;;;;;;5.93;1.23;;;3.30;99.90;;;;;;5052461;28;20045;-61
2021/12/02 02:03:42;;;;;;;10.48;1.48;;;3.30;99.90;;;;;;5033884;28;20037;-61
2021/12/02 02:06:09;;;;;;;6.38;1.23;;;3.40;99.90;;;;;;5052248;28;20167;-61
2021/12/02 02:08:37;;;;;;;5.30;1.40;;;3.60;99.90;;;;;;5052228;28;20041;-60
2021/12/02 02:11:02;;;;;;;7.63;1.50;;;3.80;99.90;;;;;;5052044;28;20041;-60
2021/12/02 02:13:28;;;;;;;7.25;1.50;;;3.90;99.90;;;;;;5033634;28;20048;-61
2021/12/02 02:15:54;;;;;;;10.00;1.30;;;4.00;99.90;;;;;;5033972;28;20064;-60
2021/12/02 02:18:24;;;;;;;6.07;2.25;;;4.00;99.90;;;;;;5052121;28;20044;-60
2021/12/02 02:21:00;;;;;;;4.80;1.38;;;4.10;99.90;;;;;;5052239;28;20078;-61
2021/12/02 02:23:30;;;;;;;7.63;1.73;;;4.00;99.90;;;;;;5051483;28;20406;-60
2021/12/02 02:25:56;;;;;;;2.60;1.27;;;4.00;99.90;;;;;;5051516;28;20091;-60
2021/12/02 02:28:22;;;;;;;4.53;0.95;;;3.80;99.90;;;;;;5051944;28;20040;-59
2021/12/02 02:30:48;;;;;;;3.28;1.10;;;3.70;99.90;;;;;;5051882;28;20446;-59
2021/12/02 02:33:15;;;;;;;4.35;1.17;;;3.60;99.90;;;;;;5051329;28;20037;-59
2021/12/02 02:35:42;;;;;;;2.38;1.05;;;3.50;99.90;;;;;;5051574;28;20129;-59
2021/12/02 02:38:08;;;;;;;5.85;1.17;;;3.30;99.90;;;;;;5051526;28;20037;-60
2021/12/02 02:40:35;;;;;;;4.95;1.10;;;3.10;99.90;;;;;;5050756;28;20681;-60
2021/12/02 02:43:08;;;;;;;4.20;1.08;;;3.00;99.90;;;;;;5051167;28;20453;-60
2021/12/02 02:45:35;;;;;;;3.13;1.45;;;2.90;99.90;;;;;;5033394;28;20048;-60
2021/12/02 02:48:00;;;;;;;5.90;1.63;;;2.80;99.90;;;;;;5051441;28;20064;-60
2021/12/02 02:50:29;;;;;;;4.40;0.98;;;2.70;99.90;;;;;;5051322;28;20040;-61
2021/12/02 02:53:05;;;;;;;3.60;0.80;;;2.60;99.90;;;;;;5050937;28;20514;-60
2021/12/02 02:55:32;;;;;;;2.40;1.00;;;2.60;99.90;;;;;;5051385;28;20040;-60
2021/12/02 03:00:43;;;;;;;2.38;1.00;;;2.40;99.90;;;;;;5051057;28;20049;-59
2021/12/02 03:03:25;;;;;;;2.63;1.13;;;2.30;99.90;;;;;;5050991;28;20051;-60
2021/12/02 03:08:33;;;;;;;2.13;0.90;;;2.10;99.90;;;;;;5051089;28;20037;-60
2021/12/02 03:10:59;;;;;;;1.63;0.70;;;2.10;99.90;;;;;;5050979;28;20040;-59
2021/12/02 03:13:40;;;;;;;3.15;1.00;;;2.00;99.90;;;;;;5050711;28;20040;-58
2021/12/02 03:18:54;;;;;;;2.83;0.90;;;1.90;99.90;;;;;;5050843;28;20045;-58
2021/12/02 03:21:21;;;;;;;0.90;0.77;;;2.00;99.90;;;;;;5050708;28;20095;-59
2021/12/02 03:23:51;;;;;;;2.92;0.95;;;2.00;99.90;;;;;;5050506;28;20044;-60
2021/12/02 03:26:17;;;;;;;1.42;0.85;;;1.90;99.90;;;;;;5050537;28;20045;-60
2021/12/02 03:28:42;;;;;;;3.95;0.93;;;2.00;99.90;;;;;;5050703;28;20040;-59
2021/12/02 03:31:11;;;;;;;1.85;0.85;;;1.90;99.90;;;;;;5050545;28;20390;-59
2021/12/02 03:33:37;;;;;;;2.45;0.98;;;1.90;99.90;;;;;;5050297;28;20107;-57
2021/12/02 03:36:02;;;;;;;3.35;1.00;;;1.90;99.90;;;;;;5050556;28;20494;-59
2021/12/02 03:38:28;;;;;;;3.75;1.05;;;1.80;99.90;;;;;;5050366;28;20055;-59
2021/12/02 03:40:54;;;;;;;1.90;1.00;;;1.80;99.90;;;;;;5050133;28;20048;-60
2021/12/02 03:43:21;;;;;;;3.03;1.00;;;1.70;99.90;;;;;;5050118;28;20048;-58
2021/12/02 03:45:47;;;;;;;2.42;1.10;;;1.70;99.90;;;;;;5050392;28;20086;-60
2021/12/02 03:48:13;;;;;;;2.30;0.98;;;1.60;99.90;;;;;;5050305;28;20036;-60
2021/12/02 03:50:39;;;;;;;2.85;1.20;;;1.60;99.90;;;;;;5049958;28;20083;-59
2021/12/02 03:53:04;;;;;;;3.40;1.13;;;1.50;99.90;;;;;;5049918;28;20094;-57
2021/12/02 03:55:30;;;;;;;1.67;1.15;;;1.50;99.90;;;;;;5050034;28;20043;-59
2021/12/02 03:57:55;;;;;;;3.47;1.63;;;1.50;99.90;;;;;;5050245;28;20523;-60
2021/12/02 04:00:21;;;;;;;3.72;1.10;;;1.50;99.90;;;;;;5050151;28;20495;-59
2021/12/02 04:02:47;;;;;;;4.93;1.20;;;1.50;99.90;;;;;;5031736;28;20044;-59
2021/12/02 04:05:12;;;;;;;2.08;1.10;;;1.50;99.90;;;;;;5050014;28;20120;-60
2021/12/02 04:07:38;;;;;;;2.83;1.00;;;1.50;99.90;;;;;;5050146;28;20037;-58
2021/12/02 04:10:04;;;;;;;1.00;0.95;;;1.50;99.90;;;;;;5049676;28;20041;-58
2021/12/02 04:12:44;;;;;;;2.83;1.02;;;1.60;99.90;;;;;;5049547;28;20155;-59
2021/12/02 04:15:13;;;;;;;3.80;1.05;;;1.70;99.90;;;;;;5049962;28;20104;-60
2021/12/02 04:17:42;;;;;;;3.88;1.10;;;1.70;99.90;;;;;;5049999;28;20594;-60
2021/12/02 04:20:16;;;;;;;4.82;1.23;;;1.80;99.90;;;;;;5049790;28;20094;-58
2021/12/02 04:22:43;;;;;;;1.67;1.10;;;1.80;99.90;;;;;;5031509;28;20041;-60
2021/12/02 04:25:09;;;;;;;2.50;1.10;;;1.90;99.90;;;;;;5049754;28;20072;-59
2021/12/02 04:27:35;;;;;;;3.80;1.08;;;1.90;99.90;;;;;;5049891;28;20052;-59
2021/12/02 04:30:04;;;;;;;2.13;1.02;;;1.90;99.90;;;;;;5049809;28;20052;-58
2021/12/02 04:32:29;;;;;;;2.88;1.10;;;1.90;99.90;;;;;;5049333;28;20091;-59
2021/12/02 04:34:55;;;;;;;1.98;1.08;;;2.00;99.90;;;;;;5049485;28;20041;-60
2021/12/02 04:37:21;;;;;;;4.88;1.40;;;2.00;99.90;;;;;;5049889;28;20053;-60
2021/12/02 04:39:46;;;;;;;1.63;1.02;;;2.20;99.90;;;;;;5031803;28;20174;-60
2021/12/02 04:42:12;;;;;;;4.15;1.33;;;2.20;99.90;;;;;;5049493;28;20084;-60
2021/12/02 04:44:37;;;;;;;4.90;1.25;;;2.20;99.90;;;;;;5049467;28;20415;-60
2021/12/02 04:47:03;;;;;;;1.55;1.00;;;2.20;99.90;;;;;;5049614;28;20332;-57
2021/12/02 04:49:29;;;;;;;6.82;1.30;;;2.20;99.90;;;;;;5031747;28;20507;-59
2021/12/02 04:51:55;;;;;;;0.88;0.88;;;2.20;99.90;;;;;;5049446;28;20047;-59
2021/12/02 04:54:20;;;;;;;5.47;1.88;;;2.20;99.90;;;;;;5049525;28;20029;-58
2021/12/02 04:56:46;;;;;;;3.05;1.20;;;2.10;99.90;;;;;;5031824;28;20068;-60
2021/12/02 04:59:11;;;;;;;2.10;1.10;;;2.20;99.90;;;;;;5049558;28;20033;-59
2021/12/02 05:01:37;;;;;;;3.05;1.20;;;2.10;99.90;;;;;;5049357;28;20037;-59
2021/12/02 05:04:02;;;;;;;3.22;1.60;;;2.10;99.90;;;;;;5051956;28;20041;-59
2021/12/02 05:06:28;;;;;;;7.32;1.20;;;2.10;99.90;;;;;;5053021;28;20049;-58
2021/12/02 05:08:54;;;;;;;2.97;1.40;;;2.10;99.90;;;;;;5053204;28;20033;-57
2021/12/02 05:11:19;;;;;;;4.97;1.30;;;2.10;99.90;;;;;;5035740;28;20039;-60
2021/12/02 05:13:45;;;;;;;4.88;1.50;;;2.10;99.90;;;;;;5035205;28;20037;-59
2021/12/02 05:16:10;;;;;;;3.58;1.23;;;2.10;99.90;;;;;;5035175;28;20625;-59
2021/12/02 05:18:36;;;;;;;2.40;1.23;;;2.10;99.90;;;;;;5052876;28;20041;-59
2021/12/02 05:21:02;;;;;;;4.57;1.20;;;2.20;99.90;;;;;;5053136;28;20103;-59
2021/12/02 05:23:27;;;;;;;3.08;1.35;;;2.30;99.90;;;;;;5052922;28;20044;-59
2021/12/02 05:25:53;;;;;;;2.58;1.40;;;2.30;99.90;;;;;;5053049;28;20029;-59
2021/12/02 05:28:19;;;;;;;3.40;1.35;;;2.30;99.90;;;;;;5052857;28;20690;-58
2021/12/02 05:30:46;;;;;;;1.67;1.08;;;2.30;99.90;;;;;;5052890;28;20033;-58
2021/12/02 05:33:12;;;;;;;3.40;1.20;;;2.30;99.90;;;;;;5052421;28;20045;-59
2021/12/02 05:35:38;;;;;;;4.60;1.40;;;2.30;99.90;;;;;;5052577;28;20597;-59
2021/12/02 05:38:03;;;;;;;3.35;1.20;;;2.30;99.90;;;;;;5052703;28;20142;-59
2021/12/02 05:40:29;;;;;;;1.35;1.02;;;2.30;99.90;;;;;;5052528;28;20039;-59
2021/12/02 05:42:55;;;;;;;3.03;1.30;;;2.30;99.90;;;;;;5052191;28;20095;-59
2021/12/02 05:45:20;;;;;;;2.17;1.00;;;2.20;99.90;;;;;;5052594;28;20029;-59
2021/12/02 05:47:46;;;;;;;5.20;1.42;;;2.30;99.90;;;;;;5052449;28;20517;-59
2021/12/02 05:50:12;;;;;;;2.60;1.38;;;2.30;99.90;;;;;;5034628;28;20070;-59
2021/12/02 05:52:37;;;;;;;2.08;0.88;;;2.30;99.90;;;;;;5052276;28;20503;-59
2021/12/02 05:55:03;;;;;;;2.13;1.00;;;2.30;99.90;;;;;;5052706;28;20679;-60
2021/12/02 05:57:31;;;;;;;6.75;1.15;;;2.30;99.90;;;;;;5052393;28;20414;-58
2021/12/02 05:59:57;;;;;;;3.63;1.00;;;2.30;99.90;;;;;;5052260;28;20044;-58
2021/12/02 06:02:23;;;;;;;3.40;1.27;;;2.20;99.90;;;;;;5051765;28;20572;-58
2021/12/02 06:04:51;;;;;;;3.45;1.20;;;2.20;99.90;;;;;;5052422;28;20033;-59
2021/12/02 06:07:17;;;;;;;3.00;1.27;;;2.20;99.90;;;;;;5052343;28;20076;-57
2021/12/02 06:09:43;;;;;;;2.70;1.10;;;2.10;99.90;;;;;;5052164;28;20071;-59
2021/12/02 06:12:09;;;;;;;1.80;1.10;;;2.00;99.90;;;;;;5051823;28;20037;-59
2021/12/02 06:14:35;;;;;;;2.30;1.23;;;2.00;99.90;;;;;;5032765;28;20052;-58
2021/12/02 06:17:00;;;;;;;3.40;1.30;;;1.90;99.90;;;;;;5051970;28;20120;-59
2021/12/02 06:19:26;;;;;;;4.60;1.25;;;1.90;99.90;;;;;;5052143;28;20079;-59
2021/12/02 06:21:51;;;;;;;4.28;1.15;;;1.80;99.90;;;;;;5051786;28;20511;-59
2021/12/02 06:24:18;;;;;;;2.83;1.00;;;1.80;99.90;;;;;;5051824;28;20395;-60
2021/12/02 06:26:44;;;;;;;2.40;1.10;;;1.80;99.90;;;;;;5051899;28;20044;-59
2021/12/02 06:29:09;;;;;;;3.33;1.20;;;1.80;99.90;;;;;;5051814;28;20063;-60
2021/12/02 06:31:35;;;;;;;1.88;1.02;;;1.80;99.90;;;;;;5051433;28;20519;-59
2021/12/02 06:34:01;;;;;;;2.22;1.30;;;1.80;99.90;;;;;;5051328;28;20049;-57
2021/12/02 06:36:27;;;;;;;2.60;1.40;;;1.80;99.90;;;;;;5051687;28;20048;-58
2021/12/02 06:38:52;;;;;;;4.22;1.73;;;1.80;99.90;;;;;;5033716;28;20037;-59
2021/12/02 06:41:18;;;;;;;2.78;1.30;;;1.90;99.90;;;;;;5051411;28;20071;-59
2021/12/02 06:43:45;;;;;;;4.50;1.30;;;1.90;99.90;;;;;;5051091;28;20049;-59
2021/12/02 06:46:10;;;;;;;3.33;1.23;;;1.90;99.90;;;;;;5051355;28;20045;-60
2021/12/02 06:48:36;;;;;;;4.80;1.30;;;2.00;99.90;;;;;;5050047;28;20033;-57
2021/12/02 06:51:02;;;;;;;2.28;1.23;;;2.00;99.90;;;;;;5048429;28;20127;-58
2021/12/02 06:53:27;;;;;;;3.95;1.40;;;2.00;99.90;;;;;;5047953;28;20040;-59
2021/12/02 06:55:53;;;;;;;3.50;1.20;;;2.10;99.90;;;;;;5030352;28;20106;-59
2021/12/02 06:58:19;;;;;;;4.57;1.40;;;2.10;99.90;;;;;;5048490;28;20037;-59
2021/12/02 07:00:44;;;;;;;4.72;1.63;;;2.20;99.90;;;;;;5047621;28;20048;-59
2021/12/02 07:03:10;;;;;;;4.07;1.20;;;2.20;99.90;;;;;;5048017;28;20513;-58
2021/12/02 07:05:35;;;;;;;3.30;1.42;;;2.20;99.90;;;;;;5048209;28;20029;-60
2021/12/02 07:08:02;;;;;;;2.03;1.50;;;2.30;99.90;;;;;;5048088;28;20037;-60
2021/12/02 07:10:31;;;;;;;2.58;1.30;;;2.30;99.90;;;;;;5048009;28;20041;-59
2021/12/02 07:12:57;;;;;;;5.30;1.67;;;2.30;99.90;;;;;;5047327;28;20112;-60
2021/12/02 07:15:32;;;;;;;3.40;1.23;;;2.40;99.90;;;;;;5047896;28;20041;-59
2021/12/02 07:18:00;;;;;;;2.40;1.50;;;2.40;99.90;;;;;;5048210;28;20041;-59
2021/12/02 07:20:34;;;;;;;5.30;1.50;;;2.50;99.90;;;;;;5048046;28;20037;-58
2021/12/02 07:23:00;;;;;;;2.58;1.20;;;2.40;99.90;;;;;;5047543;28;20041;-59
2021/12/02 07:25:27;;;;;;;3.13;1.48;;;2.40;99.90;;;;;;5046897;28;20048;-60
2021/12/02 07:27:52;;;;;;;4.85;1.98;;;2.50;99.90;;;;;;5047554;28;20029;-59
2021/12/02 07:30:18;;;;;;;3.50;1.73;;;2.50;99.90;;;;;;5047696;28;20033;-60
2021/12/02 07:32:57;;;;;;;1.50;1.40;;;2.60;99.90;;;;;;5047419;28;20112;-60
2021/12/02 07:35:23;;;;;;;1.70;1.40;;;2.60;99.90;;;;;;5046763;28;20051;-59
2021/12/02 07:37:51;;;;;;;4.28;1.60;;;2.50;99.90;;;;;;5028540;28;20047;-60
2021/12/02 07:40:19;;;;;;;1.60;1.40;;;2.60;99.90;;;;;;5028855;28;20098;-60
2021/12/02 07:42:46;;;;;;;1.60;1.40;;;2.60;99.90;;;;;;5028415;28;20056;-60
2021/12/02 07:45:12;;;;;;;2.78;1.45;;;2.60;99.90;;;;;;5046512;28;20040;-59
2021/12/02 07:47:39;;;;;;;2.42;1.70;;;2.50;99.90;;;;;;5046502;28;20403;-59
2021/12/02 07:50:07;;;;;;;1.83;1.42;;;2.50;99.90;;;;;;5046405;28;20506;-59
2021/12/02 07:52:34;;;;;;;3.05;1.33;;;2.50;99.90;;;;;;5028371;28;20052;-58
2021/12/02 07:55:05;;;;;;;1.95;1.58;;;2.50;99.90;;;;;;5046049;28;20834;-59
2021/12/02 07:57:33;;;;;;;2.55;1.48;;;2.50;99.90;;;;;;5046457;28;20066;-59
2021/12/02 07:59:58;;;;;;;2.90;1.67;;;2.50;99.90;;;;;;5046468;28;20040;-58
2021/12/02 08:02:28;;;;;;;2.78;1.58;;;2.40;99.90;;;;;;5045936;28;20045;-60
2021/12/02 08:04:54;;;;;;;3.45;1.98;;;2.40;99.90;;;;;;5046171;28;20041;-60
2021/12/02 08:07:20;;;;;;;4.45;1.88;;;2.50;99.90;;;;;;5045983;28;20071;-59
2021/12/02 08:09:46;;;;;;;2.80;1.90;;;2.50;99.90;;;;;;5046224;28;20130;-59
2021/12/02 08:12:11;;;;;;;4.10;1.63;;;2.50;99.90;;;;;;5045818;28;20107;-60
2021/12/02 08:14:37;;;;;;;3.58;2.13;;;2.50;99.90;;;;;;5045911;28;20040;-59
2021/12/02 08:17:03;;;;;;;4.15;1.90;;;2.50;99.90;;;;;;5046004;28;20132;-60
2021/12/02 08:19:29;;;;;;;4.20;2.03;;;2.50;99.90;;;;;;5045997;28;20056;-60
2021/12/02 08:21:55;;;;;;;6.15;2.30;;;2.50;99.90;;;;;;5045843;28;20045;-60
2021/12/02 08:24:23;;;;;;;3.97;1.92;;;2.50;99.90;;;;;;5045482;28;20048;-61
2021/12/02 08:26:49;;;;;;;7.40;1.95;;;2.50;99.90;;;;;;5027971;28;20053;-60
2021/12/02 08:29:15;;;;;;;6.25;2.38;;;2.50;99.90;;;;;;5045927;28;20041;-60
2021/12/02 08:31:40;;;;;;;3.38;2.00;;;2.50;99.90;;;;;;5045803;28;20044;-60
2021/12/02 08:34:06;;;;;;;6.20;2.20;;;2.50;99.90;;;;;;5010290;28;1018798;-60
2021/12/02 08:36:42;;;;;;;3.95;2.03;;;2.60;99.90;;;;;;5028187;28;20072;-60
2021/12/02 08:39:10;;;;;;;5.30;2.08;;;2.70;99.90;;;;;;5049860;28;20049;-60
2021/12/02 08:41:39;;;;;;;3.40;2.00;;;2.70;99.90;;;;;;5050715;28;20526;-60
2021/12/02 08:44:05;;;;;;;4.00;2.20;;;2.80;99.90;;;;;;5032722;28;20099;-59
2021/12/02 08:46:30;;;;;;;5.30;2.20;;;2.80;99.90;;;;;;5050580;28;20044;-60
2021/12/02 08:48:56;;;;;;;4.68;2.40;;;2.80;99.90;;;;;;5032412;28;20044;-60
2021/12/02 08:51:24;;;;;;;5.65;2.40;;;2.90;99.90;;;;;;5050470;28;20120;-60
2021/12/02 08:53:49;;;;;;;7.35;2.45;;;3.00;99.90;;;;;;5050486;28;20045;-60
2021/12/02 08:56:15;;;;;;;4.40;2.70;;;3.10;99.90;;;;;;5050447;28;20075;-60
2021/12/02 08:58:40;;;;;;;5.60;2.60;;;3.20;99.90;;;;;;5050333;28;20537;-59
2021/12/02 09:01:06;;;;;;;4.22;2.38;;;3.20;99.90;;;;;;5049400;28;20156;-60
2021/12/02 09:03:33;;;;;;;2.83;2.10;;;3.30;99.90;;;;;;5032239;28;20391;-60
2021/12/02 09:06:00;;;;;;;5.82;2.60;;;3.40;99.90;;;;;;5050237;28;20383;-60
2021/12/02 09:08:26;;;;;;;3.70;2.38;;;3.30;99.90;;;;;;5032335;28;20048;-60
2021/12/02 09:10:51;;;;;;;3.65;2.08;;;3.40;99.90;;;;;;5050328;28;20051;-59
2021/12/02 09:13:17;;;;;;;2.90;2.00;;;3.30;99.90;;;;;;5050026;28;20131;-59
2021/12/02 09:15:43;;;;;;;3.35;1.90;;;3.30;99.90;;;;;;5050231;28;20072;-60
2021/12/02 09:18:09;;;;;;;3.13;2.00;;;3.30;99.90;;;;;;5050132;28;20071;-58
2021/12/02 09:20:35;;;;;;;3.50;2.20;;;3.20;99.90;;;;;;5043122;28;20045;-60
2021/12/02 09:23:02;;;;;;;3.70;2.25;;;3.20;99.90;;;;;;5049988;28;20094;-60
2021/12/02 09:25:28;;;;;;;3.05;1.98;;;3.20;99.90;;;;;;5049759;28;20041;-60
2021/12/02 09:27:53;;;;;;;2.60;1.70;;;3.30;99.90;;;;;;5032151;28;20044;-60
2021/12/02 09:30:19;;;;;;;2.97;1.95;;;3.30;99.90;;;;;;5049831;28;20037;-60
2021/12/02 09:32:45;;;;;;;4.30;2.20;;;3.30;99.90;;;;;;5031562;28;20491;-59
2021/12/02 09:35:13;;;;;;;3.85;1.65;;;3.30;99.90;;;;;;5049618;28;20294;-60
2021/12/02 09:37:38;;;;;;;4.18;1.65;;;3.40;99.90;;;;;;5049419;28;20098;-60
2021/12/02 09:40:08;;;;;;;3.03;1.85;;;3.40;99.90;;;;;;5049400;28;20033;-60
2021/12/02 09:42:34;;;;;;;3.78;1.80;;;3.40;99.90;;;;;;5049024;28;20522;-60
2021/12/02 09:45:00;;;;;;;4.63;1.67;;;3.40;99.90;;;;;;5049438;28;20487;-60
2021/12/02 09:47:32;;;;;;;5.78;2.08;;;3.50;99.90;;;;;;5048878;28;20045;-60
2021/12/02 09:50:03;;;;;;;;;;;3.60;99.90;;;;;;5048650;28;20471;-60
2021/12/02 09:52:33;;;;;;;6.35;1.92;;;3.70;99.90;;;;;;5048937;28;19954;-59
2021/12/02 09:55:06;;;;;;;8.43;2.63;;;3.70;99.90;;;;;;5031536;28;20056;-61
2021/12/02 09:57:37;;;;;;;2.90;2.05;;;3.80;99.90;;;;;;5049537;28;20056;-61
2021/12/02 10:00:06;;;;;;;10.10;2.17;;;3.90;99.90;;;;;;5049104;28;20095;-61
2021/12/02 10:02:38;;;;;;;3.95;2.15;;;4.00;99.90;;;;;;5049235;28;20077;-61
2021/12/02 10:05:09;;;;;;;3.03;1.90;;;4.00;99.90;;;;;;5049272;28;20059;-61
2021/12/02 10:07:51;;;;;;;3.85;1.80;;;4.00;99.90;;;;;;5049585;28;20103;-61
2021/12/02 10:10:28;;;;;;;3.83;2.20;;;4.10;99.90;;;;;;5031440;28;20120;-61
2021/12/02 10:13:07;;;;;;;3.15;1.98;;;4.10;99.90;;;;;;5048462;28;20037;-61
2021/12/02 10:15:37;;;;;;;3.03;1.55;;;4.10;99.90;;;;;;5049146;28;20063;-62
2021/12/02 10:18:10;;;;;;;2.92;1.75;;;4.20;99.90;;;;;;5049135;28;20067;-61
2021/12/02 10:20:42;;;;;;;4.40;1.80;;;4.30;99.90;;;;;;5049008;28;20178;-61
2021/12/02 10:23:18;;;;;;;7.28;1.90;;;4.40;99.90;;;;;;5047489;28;20048;-61
2021/12/02 10:25:58;;;;;;;3.00;1.60;;;4.50;99.90;;;;;;5048239;28;20037;-61
2021/12/02 10:28:26;;;;;;;4.75;2.10;;;4.60;99.90;;;;;;5048679;28;20488;-61
2021/12/02 10:30:59;;;;;;;5.80;2.30;;;4.80;99.90;;;;;;5048571;28;20412;-61
2021/12/02 10:33:48;;;;;;;3.95;2.17;;;4.70;99.90;;;;;;5028344;28;20072;-61
2021/12/02 10:36:32;;;;;;;4.70;2.00;;;4.70;99.90;;;;;;5010672;28;20053;-61
2021/12/02 10:39:24;;;;;;;3.70;2.38;;;4.70;99.90;;;;;;5011307;28;20080;-61
2021/12/02 10:42:05;;;;;;;7.50;3.67;;;4.60;99.90;;;;;;5017378;28;20049;-61
2021/12/02 10:44:33;;;;;;;6.55;2.70;;;4.70;99.90;;;;;;5011073;28;20505;-61
2021/12/02 10:47:01;;;;;;;3.88;2.33;;;4.60;99.90;;;;;;5029116;28;20041;-61
2021/12/02 10:49:30;;;;;;;4.20;1.95;;;4.60;99.90;;;;;;5028689;28;20686;-61
2021/12/02 10:52:03;;;;;;;4.65;1.80;;;4.60;99.90;;;;;;5028587;28;20847;-61
2021/12/02 10:54:33;;;;;;;3.45;1.70;;;4.70;99.90;;;;;;5028531;28;20495;-61
2021/12/02 10:57:05;;;;;;;3.25;1.70;;;4.60;99.90;;;;;;5028516;28;20087;-61
2021/12/02 11:00:14;;;;;;;5.00;1.75;;;4.60;99.90;;;;;;5010974;28;20115;-61
2021/12/02 11:02:47;;;;;;;2.22;1.38;;;4.60;99.90;;;;;;5028093;28;20041;-61
2021/12/02 11:05:35;;;;;;;6.60;1.90;;;4.70;99.90;;;;;;5028620;28;20490;-61
2021/12/02 11:08:07;;;;;;;3.53;1.60;;;4.70;99.90;;;;;;5028373;28;20064;-61
2021/12/02 11:10:34;;;;;;;3.72;1.50;;;4.60;99.90;;;;;;5028186;28;20453;-61
2021/12/02 11:13:00;;;;;;;5.55;1.40;;;4.60;99.90;;;;;;5027260;28;20049;-61
2021/12/02 11:15:30;;;;;;;1.00;0.90;;;4.60;99.90;;;;;;5010271;28;20110;-61
2021/12/02 11:18:02;;;;;;;2.03;1.30;;;4.60;99.90;;;;;;5027935;28;20419;-61
2021/12/02 11:20:34;;;;;;;1.40;0.98;;;4.60;99.90;;;;;;5028073;28;20111;-61
2021/12/02 11:23:15;;;;;;;1.83;1.02;;;4.60;99.90;;;;;;5010325;28;20049;-61
2021/12/02 11:25:49;;;;;;;0.63;0.63;;;4.30;99.90;;;;;;5027232;28;20057;-61
2021/12/02 11:28:15;;;;;;;1.00;0.80;;;4.10;99.90;;;;;;5010350;28;20115;-61
2021/12/02 11:30:41;;;;;;;0.50;0.50;;;3.90;99.90;;;;;;5027865;28;20037;-61
2021/12/02 11:33:09;;;;;;;1.05;0.60;;;3.50;99.90;;;;;;5045490;28;20037;-61
2021/12/02 11:35:37;;;;;;;0.80;0.73;;;3.10;99.90;;;;;;5047580;28;20056;-60
2021/12/02 11:38:16;;;;;;;0.52;0.52;;;2.90;99.90;;;;;;5047656;28;20041;-59
2021/12/02 11:40:55;;;;;;;0.55;0.55;;;2.70;99.90;;;;;;5048241;28;20133;-59
2021/12/02 11:43:25;;;;;;;1.30;0.63;;;2.70;99.90;;;;;;5047916;28;20040;-60
2021/12/02 11:45:54;;;;;;;1.95;0.90;;;2.80;99.90;;;;;;5047936;28;20045;-60
2021/12/02 11:48:23;;;;;;;2.63;0.90;;;2.80;99.90;;;;;;5047547;28;20032;-59
2021/12/02 11:50:53;;;;;;;1.20;0.70;;;3.00;99.90;;;;;;5048084;28;20041;-59
2021/12/02 11:53:21;;;;;;;2.08;0.70;;;3.10;99.90;;;;;;5047988;28;20033;-60
2021/12/02 11:55:49;;;;;;;0.60;0.60;;;3.10;99.90;;;;;;5048204;28;20692;-59
2021/12/02 11:58:15;;;;;;;2.05;0.70;;;3.10;99.90;;;;;;5047941;28;20099;-60
2021/12/02 12:00:43;;;;;;;1.45;0.70;;;3.10;99.90;;;;;;5047107;28;20555;-59
2021/12/02 12:03:17;;;;;;;2.90;0.80;;;3.10;99.90;;;;;;5029331;28;20044;-59
2021/12/02 12:05:52;;;;;;;0.95;0.70;;;3.10;99.90;;;;;;5047558;28;20120;-59
2021/12/02 12:08:51;;;;;;;0.70;0.70;;;3.00;99.90;;;;;;5047547;28;20068;-59
2021/12/02 12:11:23;;;;;;;0.55;0.50;;;3.10;99.90;;;;;;5031830;28;20087;-58
2021/12/02 12:13:54;;;;;;;1.17;0.70;;;3.10;99.90;;;;;;5046863;28;20120;-59
2021/12/02 12:16:24;;;;;;;0.70;0.70;;;3.10;99.90;;;;;;5047927;28;20037;-59
2021/12/02 12:18:51;;;;;;;0.68;0.63;;;3.20;99.90;;;;;;5013231;28;20045;-58
2021/12/02 12:21:17;;;;;;;1.00;0.60;;;3.20;99.90;;;;;;5029272;28;20056;-58
2021/12/02 12:23:56;;;;;;;1.77;1.13;;;3.20;99.90;;;;;;5046448;28;20025;-58
2021/12/02 12:26:32;;;;;;;1.02;0.70;;;3.30;99.90;;;;;;5047163;28;20037;-58
2021/12/02 12:29:07;;;;;;;2.10;0.80;;;3.30;99.90;;;;;;5029374;28;20045;-58
2021/12/02 12:31:35;;;;;;;0.70;0.70;;;3.40;99.90;;;;;;5046796;28;20037;-58
2021/12/02 12:34:31;;;;;;;0.60;0.60;;;3.40;99.90;;;;;;5046871;28;20396;-58
2021/12/02 12:36:58;;;;;;;1.10;0.70;;;3.40;99.90;;;;;;5046698;28;20110;-59
2021/12/02 12:39:28;;;;;;;1.38;0.80;;;3.40;99.90;;;;;;5047156;28;20044;-58
2021/12/02 12:42:11;;;;;;;0.88;0.73;;;3.40;99.90;;;;;;5046928;28;20110;-58
2021/12/02 12:44:51;;;;;;;1.38;0.95;;;3.40;99.90;;;;;;5046483;28;20112;-59
2021/12/02 12:47:18;;;;;;;1.15;1.05;;;3.40;99.90;;;;;;5046621;28;20447;-58
2021/12/02 12:49:45;;;;;;;0.80;0.80;;;3.50;99.90;;;;;;5046444;28;20041;-58
2021/12/02 12:52:19;;;;;;;1.90;1.08;;;3.50;99.90;;;;;;5028545;28;20048;-58
2021/12/02 12:55:14;;;;;;;0.90;0.85;;;3.60;99.90;;;;;;5028758;28;20444;-58
2021/12/02 12:58:07;;;;;;;1.42;1.00;;;3.70;99.90;;;;;;5029390;28;20518;-59
2021/12/02 13:00:39;;;;;;;3.38;1.10;;;3.60;99.90;;;;;;5046186;28;20041;-58
2021/12/02 13:03:10;;;;;;;2.08;1.10;;;3.50;99.90;;;;;;5046122;28;20048;-58
2021/12/02 13:05:49;;;;;;;3.08;1.10;;;3.40;99.90;;;;;;5046312;28;20041;-58
2021/12/02 13:08:20;;;;;;;0.68;0.60;;;3.30;99.90;;;;;;5046521;28;20045;-61
2021/12/02 13:11:00;;;;;;;1.30;1.00;;;3.20;99.90;;;;;;5046396;28;20047;-61
2021/12/02 13:13:29;;;;;;;1.38;1.10;;;3.10;99.90;;;;;;5027750;28;21078;-60
2021/12/02 13:16:17;;;;;;;1.25;0.90;;;3.10;99.90;;;;;;5046057;28;20048;-61
2021/12/02 13:19:12;;;;;;;0.82;0.80;;;3.10;99.90;;;;;;5046504;28;20052;-60
2021/12/02 13:21:39;;;;;;;1.92;0.85;;;3.10;99.90;;;;;;5028157;28;20052;-60
2021/12/02 13:24:06;;;;;;;1.17;0.70;;;3.10;99.90;;;;;;5047240;28;20049;-60